Portada
METAR-TAF:

METAR-TAF

Aeropuertos :

Aeropuerto Internacional Hato

Curazao, Antillas Neerlandesas

latitud: 12-12N, longitud: 068-58W, altitud: 9 m

Observación

El informe se hizo hace 11 minutos, a las 19:00 UTC
Viento 11 kt del este
Temperatura 30°C
Humedad 70%
Presión 1013 hPa
Visibilidad 10 km o más

METAR: TNCC 181900Z 09011KT 9999 NSC 30/24 Q1013 NOSIG

Hora: 15:11 (19:11 UTC)

Pronóstico

El informe se hizo hace 3 horas y 11 minutos, a las 16:00 UTC
Pronóstico válido del 18 a las 18 UTC al 19 a las 18 UTC
Viento 14 kt del este
Visibilidad 10 km o más
Nubes dispersas a una altura de 2000 ft
Probabilidad 30% :
Temporalmente
del 19 a las 06 UTC al 19 a las 16 UTC
Cielo nuboso a una altura de 1500 ft

TAF: TNCC 181600Z 1818/1918 10014KT 9999 SCT020 PROB30 TEMPO 1906/1916 BKN015

Observaciones y pronósticos meteorológicos de más de 4000 aeropuertos (mensajes METAR y TAF).

Los puntos amarillos y rojos representan las estaciones disponibles.

Ponga el ratón en el punto deseado para ver el nombre de la estación.

Haga clic para ver las observaciones y los pronósticos meteorológicos.

Para cambiar el mapa : haga clic en los botones verdes con una cruz de color negro para hacer un zoom, en el botón verde con un guión para alejar o en las flechas verdes para mapas adyacentes.


METAR-TAF: